sensor_id;sensor_type;location;lat;lon;timestamp;P1;durP1;ratioP1;P2;durP2;ratioP2
49610;SDS011;35515;48.766;9.176;2023-01-04T00:02:06;8.02;;;7.03;;
49610;SDS011;35515;48.766;9.176;2023-01-04T00:04:32;8.93;;;6.68;;
49610;SDS011;35515;48.766;9.176;2023-01-04T00:06:59;11.73;;;7.10;;
49610;SDS011;35515;48.766;9.176;2023-01-04T00:09:25;10.10;;;7.70;;
49610;SDS011;35515;48.766;9.176;2023-01-04T00:11:52;10.57;;;7.63;;
49610;SDS011;35515;48.766;9.176;2023-01-04T00:14:19;9.20;;;6.50;;
49610;SDS011;35515;48.766;9.176;2023-01-04T00:16:46;8.93;;;7.18;;
49610;SDS011;35515;48.766;9.176;2023-01-04T00:19:13;8.32;;;6.70;;
49610;SDS011;35515;48.766;9.176;2023-01-04T00:21:39;9.23;;;7.28;;
49610;SDS011;35515;48.766;9.176;2023-01-04T00:24:06;8.48;;;6.70;;
49610;SDS011;35515;48.766;9.176;2023-01-04T00:26:34;8.65;;;7.28;;
49610;SDS011;35515;48.766;9.176;2023-01-04T00:29:01;9.93;;;6.95;;
49610;SDS011;35515;48.766;9.176;2023-01-04T00:31:29;9.95;;;6.38;;
49610;SDS011;35515;48.766;9.176;2023-01-04T00:33:58;9.15;;;6.60;;
49610;SDS011;35515;48.766;9.176;2023-01-04T00:36:26;8.20;;;6.10;;
49610;SDS011;35515;48.766;9.176;2023-01-04T00:38:53;8.35;;;6.85;;
49610;SDS011;35515;48.766;9.176;2023-01-04T00:41:32;9.63;;;6.50;;
49610;SDS011;35515;48.766;9.176;2023-01-04T00:43:59;9.32;;;7.05;;
49610;SDS011;35515;48.766;9.176;2023-01-04T00:46:28;8.40;;;7.03;;
49610;SDS011;35515;48.766;9.176;2023-01-04T00:48:55;8.90;;;6.88;;
49610;SDS011;35515;48.766;9.176;2023-01-04T00:51:23;8.10;;;6.20;;
49610;SDS011;35515;48.766;9.176;2023-01-04T00:53:50;10.20;;;5.97;;
49610;SDS011;35515;48.766;9.176;2023-01-04T00:56:16;10.38;;;6.38;;
49610;SDS011;35515;48.766;9.176;2023-01-04T00:58:43;7.32;;;5.70;;
49610;SDS011;35515;48.766;9.176;2023-01-04T01:01:10;9.07;;;5.80;;
49610;SDS011;35515;48.766;9.176;2023-01-04T01:03:36;8.63;;;6.00;;
49610;SDS011;35515;48.766;9.176;2023-01-04T01:06:04;6.90;;;5.80;;
49610;SDS011;35515;48.766;9.176;2023-01-04T01:08:34;7.50;;;6.10;;
49610;SDS011;35515;48.766;9.176;2023-01-04T01:11:02;7.57;;;6.45;;
49610;SDS011;35515;48.766;9.176;2023-01-04T01:13:29;8.48;;;5.95;;
49610;SDS011;35515;48.766;9.176;2023-01-04T01:15:59;8.38;;;5.78;;
49610;SDS011;35515;48.766;9.176;2023-01-04T01:18:27;8.88;;;6.82;;
49610;SDS011;35515;48.766;9.176;2023-01-04T01:20:54;8.88;;;6.40;;
49610;SDS011;35515;48.766;9.176;2023-01-04T01:23:21;10.73;;;6.50;;
49610;SDS011;35515;48.766;9.176;2023-01-04T01:25:48;8.73;;;5.80;;
49610;SDS011;35515;48.766;9.176;2023-01-04T01:28:15;8.07;;;5.53;;
49610;SDS011;35515;48.766;9.176;2023-01-04T01:30:42;10.52;;;6.97;;
49610;SDS011;35515;48.766;9.176;2023-01-04T01:33:09;8.10;;;6.40;;
49610;SDS011;35515;48.766;9.176;2023-01-04T01:35:35;8.95;;;5.97;;
49610;SDS011;35515;48.766;9.176;2023-01-04T01:38:02;8.43;;;5.57;;
49610;SDS011;35515;48.766;9.176;2023-01-04T01:40:29;7.85;;;5.32;;
49610;SDS011;35515;48.766;9.176;2023-01-04T01:42:57;8.35;;;5.80;;
49610;SDS011;35515;48.766;9.176;2023-01-04T01:45:25;7.97;;;6.00;;
49610;SDS011;35515;48.766;9.176;2023-01-04T01:47:55;6.50;;;5.60;;
49610;SDS011;35515;48.766;9.176;2023-01-04T01:50:30;8.15;;;5.88;;
49610;SDS011;35515;48.766;9.176;2023-01-04T01:53:01;8.80;;;5.32;;
49610;SDS011;35515;48.766;9.176;2023-01-04T01:55:30;8.45;;;5.93;;
49610;SDS011;35515;48.766;9.176;2023-01-04T01:58:00;8.07;;;6.10;;
49610;SDS011;35515;48.766;9.176;2023-01-04T02:00:28;8.27;;;5.47;;
49610;SDS011;35515;48.766;9.176;2023-01-04T02:03:01;8.32;;;5.93;;
49610;SDS011;35515;48.766;9.176;2023-01-04T02:05:34;7.35;;;5.22;;
49610;SDS011;35515;48.766;9.176;2023-01-04T02:08:02;8.07;;;5.90;;
49610;SDS011;35515;48.766;9.176;2023-01-04T02:10:30;8.52;;;6.00;;
49610;SDS011;35515;48.766;9.176;2023-01-04T02:12:59;6.95;;;5.40;;
49610;SDS011;35515;48.766;9.176;2023-01-04T02:15:31;6.70;;;5.10;;
49610;SDS011;35515;48.766;9.176;2023-01-04T02:18:07;6.85;;;5.43;;
49610;SDS011;35515;48.766;9.176;2023-01-04T02:20:39;7.20;;;5.60;;
49610;SDS011;35515;48.766;9.176;2023-01-04T02:26:32;7.97;;;5.90;;
49610;SDS011;35515;48.766;9.176;2023-01-04T02:32:33;6.85;;;4.70;;
49610;SDS011;35515;48.766;9.176;2023-01-04T02:35:13;6.82;;;4.55;;
49610;SDS011;35515;48.766;9.176;2023-01-04T02:37:45;6.20;;;4.93;;
49610;SDS011;35515;48.766;9.176;2023-01-04T02:40:22;6.88;;;4.78;;
49610;SDS011;35515;48.766;9.176;2023-01-04T02:42:55;7.47;;;4.10;;
49610;SDS011;35515;48.766;9.176;2023-01-04T02:45:46;6.55;;;4.88;;
49610;SDS011;35515;48.766;9.176;2023-01-04T02:48:19;5.63;;;4.38;;
49610;SDS011;35515;48.766;9.176;2023-01-04T02:51:03;6.13;;;4.60;;
49610;SDS011;35515;48.766;9.176;2023-01-04T02:53:30;6.95;;;5.05;;
49610;SDS011;35515;48.766;9.176;2023-01-04T02:56:04;6.97;;;4.80;;
49610;SDS011;35515;48.766;9.176;2023-01-04T02:58:55;8.00;;;4.78;;
49610;SDS011;35515;48.766;9.176;2023-01-04T03:01:49;6.47;;;4.70;;
49610;SDS011;35515;48.766;9.176;2023-01-04T03:04:46;6.10;;;4.88;;
49610;SDS011;35515;48.766;9.176;2023-01-04T03:07:38;8.65;;;5.40;;
49610;SDS011;35515;48.766;9.176;2023-01-04T03:10:13;6.65;;;4.78;;
49610;SDS011;35515;48.766;9.176;2023-01-04T03:12:45;6.50;;;4.35;;
49610;SDS011;35515;48.766;9.176;2023-01-04T03:15:15;6.22;;;4.43;;
49610;SDS011;35515;48.766;9.176;2023-01-04T03:17:46;5.82;;;4.22;;
49610;SDS011;35515;48.766;9.176;2023-01-04T03:20:17;5.45;;;4.13;;
49610;SDS011;35515;48.766;9.176;2023-01-04T03:22:49;5.72;;;4.07;;
49610;SDS011;35515;48.766;9.176;2023-01-04T03:25:38;7.07;;;4.30;;
49610;SDS011;35515;48.766;9.176;2023-01-04T03:28:25;7.95;;;4.20;;
49610;SDS011;35515;48.766;9.176;2023-01-04T03:31:14;6.30;;;3.97;;
49610;SDS011;35515;48.766;9.176;2023-01-04T03:34:03;5.32;;;4.00;;
49610;SDS011;35515;48.766;9.176;2023-01-04T03:36:55;6.60;;;3.85;;
49610;SDS011;35515;48.766;9.176;2023-01-04T03:42:44;5.63;;;4.03;;
49610;SDS011;35515;48.766;9.176;2023-01-04T03:45:37;4.85;;;4.15;;
49610;SDS011;35515;48.766;9.176;2023-01-04T03:48:27;5.38;;;3.60;;
49610;SDS011;35515;48.766;9.176;2023-01-04T03:50:58;4.27;;;3.40;;
49610;SDS011;35515;48.766;9.176;2023-01-04T03:53:34;4.70;;;3.67;;
49610;SDS011;35515;48.766;9.176;2023-01-04T03:56:06;5.03;;;3.67;;
49610;SDS011;35515;48.766;9.176;2023-01-04T03:58:34;5.28;;;3.70;;
49610;SDS011;35515;48.766;9.176;2023-01-04T04:01:02;5.35;;;3.78;;
49610;SDS011;35515;48.766;9.176;2023-01-04T04:03:30;4.68;;;3.55;;
49610;SDS011;35515;48.766;9.176;2023-01-04T04:06:14;4.20;;;3.53;;
49610;SDS011;35515;48.766;9.176;2023-01-04T04:09:00;5.57;;;3.30;;
49610;SDS011;35515;48.766;9.176;2023-01-04T04:11:27;4.03;;;3.17;;
49610;SDS011;35515;48.766;9.176;2023-01-04T04:13:57;3.53;;;2.65;;
49610;SDS011;35515;48.766;9.176;2023-01-04T04:16:24;5.18;;;3.33;;
49610;SDS011;35515;48.766;9.176;2023-01-04T04:18:51;3.50;;;2.83;;
49610;SDS011;35515;48.766;9.176;2023-01-04T04:21:18;3.95;;;2.90;;
49610;SDS011;35515;48.766;9.176;2023-01-04T04:23:45;3.75;;;3.05;;
49610;SDS011;35515;48.766;9.176;2023-01-04T04:26:12;4.80;;;3.10;;
49610;SDS011;35515;48.766;9.176;2023-01-04T04:28:39;4.50;;;2.78;;
49610;SDS011;35515;48.766;9.176;2023-01-04T04:31:06;5.72;;;3.42;;
49610;SDS011;35515;48.766;9.176;2023-01-04T04:33:32;5.22;;;3.55;;
49610;SDS011;35515;48.766;9.176;2023-01-04T04:35:59;4.22;;;2.90;;
49610;SDS011;35515;48.766;9.176;2023-01-04T04:38:25;4.45;;;3.17;;
49610;SDS011;35515;48.766;9.176;2023-01-04T04:40:52;4.10;;;2.60;;
49610;SDS011;35515;48.766;9.176;2023-01-04T04:43:38;3.90;;;2.72;;
49610;SDS011;35515;48.766;9.176;2023-01-04T04:46:05;4.63;;;3.28;;
49610;SDS011;35515;48.766;9.176;2023-01-04T04:48:32;4.45;;;2.90;;
49610;SDS011;35515;48.766;9.176;2023-01-04T04:50:58;3.60;;;2.95;;
49610;SDS011;35515;48.766;9.176;2023-01-04T04:53:25;4.82;;;2.83;;
49610;SDS011;35515;48.766;9.176;2023-01-04T04:55:52;4.00;;;2.75;;
49610;SDS011;35515;48.766;9.176;2023-01-04T04:58:19;4.07;;;2.60;;
49610;SDS011;35515;48.766;9.176;2023-01-04T05:00:48;3.88;;;2.72;;
49610;SDS011;35515;48.766;9.176;2023-01-04T05:03:14;4.68;;;2.85;;
49610;SDS011;35515;48.766;9.176;2023-01-04T05:05:41;3.88;;;2.70;;
49610;SDS011;35515;48.766;9.176;2023-01-04T05:08:07;3.38;;;2.47;;
49610;SDS011;35515;48.766;9.176;2023-01-04T05:10:34;4.20;;;2.83;;
49610;SDS011;35515;48.766;9.176;2023-01-04T05:13:01;3.50;;;2.40;;
49610;SDS011;35515;48.766;9.176;2023-01-04T05:15:30;3.63;;;2.83;;
49610;SDS011;35515;48.766;9.176;2023-01-04T05:18:00;3.47;;;2.42;;
49610;SDS011;35515;48.766;9.176;2023-01-04T05:20:27;4.53;;;2.50;;
49610;SDS011;35515;48.766;9.176;2023-01-04T05:22:53;4.35;;;2.47;;
49610;SDS011;35515;48.766;9.176;2023-01-04T05:25:20;4.53;;;2.75;;
49610;SDS011;35515;48.766;9.176;2023-01-04T05:27:47;2.47;;;2.20;;
49610;SDS011;35515;48.766;9.176;2023-01-04T05:30:14;5.00;;;2.83;;
49610;SDS011;35515;48.766;9.176;2023-01-04T05:32:59;3.97;;;2.58;;
49610;SDS011;35515;48.766;9.176;2023-01-04T05:35:27;3.63;;;2.97;;
49610;SDS011;35515;48.766;9.176;2023-01-04T05:37:54;4.00;;;2.33;;
49610;SDS011;35515;48.766;9.176;2023-01-04T05:40:21;3.53;;;2.38;;
49610;SDS011;35515;48.766;9.176;2023-01-04T05:42:48;3.35;;;2.55;;
49610;SDS011;35515;48.766;9.176;2023-01-04T05:45:15;3.63;;;2.50;;
49610;SDS011;35515;48.766;9.176;2023-01-04T05:47:43;3.38;;;2.28;;
49610;SDS011;35515;48.766;9.176;2023-01-04T05:50:11;4.20;;;2.63;;
49610;SDS011;35515;48.766;9.176;2023-01-04T05:52:38;3.13;;;2.40;;
49610;SDS011;35515;48.766;9.176;2023-01-04T05:55:04;3.70;;;2.20;;
49610;SDS011;35515;48.766;9.176;2023-01-04T05:57:31;2.90;;;2.20;;
49610;SDS011;35515;48.766;9.176;2023-01-04T05:59:58;4.47;;;2.20;;
49610;SDS011;35515;48.766;9.176;2023-01-04T06:02:26;3.55;;;2.20;;
49610;SDS011;35515;48.766;9.176;2023-01-04T06:04:54;4.53;;;2.55;;
49610;SDS011;35515;48.766;9.176;2023-01-04T06:07:22;4.22;;;2.58;;
49610;SDS011;35515;48.766;9.176;2023-01-04T06:09:49;4.03;;;2.60;;
49610;SDS011;35515;48.766;9.176;2023-01-04T06:12:15;3.58;;;2.75;;
49610;SDS011;35515;48.766;9.176;2023-01-04T06:14:42;3.20;;;2.47;;
49610;SDS011;35515;48.766;9.176;2023-01-04T06:17:09;5.20;;;2.75;;
49610;SDS011;35515;48.766;9.176;2023-01-04T06:19:35;3.60;;;3.03;;
49610;SDS011;35515;48.766;9.176;2023-01-04T06:22:02;4.28;;;2.55;;
49610;SDS011;35515;48.766;9.176;2023-01-04T06:24:30;3.50;;;2.47;;
49610;SDS011;35515;48.766;9.176;2023-01-04T06:26:58;3.78;;;2.70;;
49610;SDS011;35515;48.766;9.176;2023-01-04T06:29:24;3.72;;;2.50;;
49610;SDS011;35515;48.766;9.176;2023-01-04T06:31:51;3.47;;;2.50;;
49610;SDS011;35515;48.766;9.176;2023-01-04T06:34:17;4.50;;;2.80;;
49610;SDS011;35515;48.766;9.176;2023-01-04T06:36:44;5.28;;;2.78;;
49610;SDS011;35515;48.766;9.176;2023-01-04T06:39:11;4.43;;;3.00;;
49610;SDS011;35515;48.766;9.176;2023-01-04T06:41:39;3.17;;;2.20;;
49610;SDS011;35515;48.766;9.176;2023-01-04T06:44:05;3.63;;;2.53;;
49610;SDS011;35515;48.766;9.176;2023-01-04T06:46:32;5.47;;;2.85;;
49610;SDS011;35515;48.766;9.176;2023-01-04T06:48:58;3.53;;;2.28;;
49610;SDS011;35515;48.766;9.176;2023-01-04T06:51:25;3.92;;;2.40;;
49610;SDS011;35515;48.766;9.176;2023-01-04T06:53:51;3.70;;;2.47;;
49610;SDS011;35515;48.766;9.176;2023-01-04T06:56:18;2.65;;;2.15;;
49610;SDS011;35515;48.766;9.176;2023-01-04T06:58:46;3.80;;;2.90;;
49610;SDS011;35515;48.766;9.176;2023-01-04T07:01:13;4.68;;;2.35;;
49610;SDS011;35515;48.766;9.176;2023-01-04T07:03:39;3.15;;;2.53;;
49610;SDS011;35515;48.766;9.176;2023-01-04T07:06:06;3.50;;;2.60;;
49610;SDS011;35515;48.766;9.176;2023-01-04T07:08:34;4.55;;;2.20;;
49610;SDS011;35515;48.766;9.176;2023-01-04T07:11:01;4.32;;;2.40;;
49610;SDS011;35515;48.766;9.176;2023-01-04T07:13:28;3.10;;;2.40;;
49610;SDS011;35515;48.766;9.176;2023-01-04T07:15:56;4.50;;;2.45;;
49610;SDS011;35515;48.766;9.176;2023-01-04T07:18:22;2.95;;;2.20;;
49610;SDS011;35515;48.766;9.176;2023-01-04T07:20:49;2.70;;;2.20;;
49610;SDS011;35515;48.766;9.176;2023-01-04T07:23:15;3.40;;;2.25;;
49610;SDS011;35515;48.766;9.176;2023-01-04T07:25:42;3.15;;;2.20;;
49610;SDS011;35515;48.766;9.176;2023-01-04T07:28:08;6.82;;;3.70;;
49610;SDS011;35515;48.766;9.176;2023-01-04T07:30:35;5.53;;;3.13;;
49610;SDS011;35515;48.766;9.176;2023-01-04T07:33:03;2.25;;;1.70;;
49610;SDS011;35515;48.766;9.176;2023-01-04T07:35:30;2.67;;;1.80;;
49610;SDS011;35515;48.766;9.176;2023-01-04T07:37:56;2.15;;;1.80;;
49610;SDS011;35515;48.766;9.176;2023-01-04T07:40:23;3.50;;;1.85;;
49610;SDS011;35515;48.766;9.176;2023-01-04T07:42:52;2.75;;;1.80;;
49610;SDS011;35515;48.766;9.176;2023-01-04T07:45:20;4.07;;;2.08;;
49610;SDS011;35515;48.766;9.176;2023-01-04T07:47:47;4.18;;;1.60;;
49610;SDS011;35515;48.766;9.176;2023-01-04T07:50:15;2.90;;;1.67;;
49610;SDS011;35515;48.766;9.176;2023-01-04T07:52:42;3.08;;;1.90;;
49610;SDS011;35515;48.766;9.176;2023-01-04T07:55:08;2.38;;;1.73;;
49610;SDS011;35515;48.766;9.176;2023-01-04T07:57:35;3.10;;;1.70;;
49610;SDS011;35515;48.766;9.176;2023-01-04T08:00:02;2.53;;;1.52;;
49610;SDS011;35515;48.766;9.176;2023-01-04T08:02:30;2.80;;;1.90;;
49610;SDS011;35515;48.766;9.176;2023-01-04T08:04:56;4.68;;;1.92;;
49610;SDS011;35515;48.766;9.176;2023-01-04T08:07:24;3.38;;;1.90;;
49610;SDS011;35515;48.766;9.176;2023-01-04T08:09:51;2.47;;;1.40;;
49610;SDS011;35515;48.766;9.176;2023-01-04T08:12:18;2.97;;;1.70;;
49610;SDS011;35515;48.766;9.176;2023-01-04T08:14:44;2.97;;;1.80;;
49610;SDS011;35515;48.766;9.176;2023-01-04T08:17:11;2.45;;;1.42;;
49610;SDS011;35515;48.766;9.176;2023-01-04T08:19:37;3.35;;;1.70;;
49610;SDS011;35515;48.766;9.176;2023-01-04T08:22:04;2.63;;;1.95;;
49610;SDS011;35515;48.766;9.176;2023-01-04T08:24:32;1.77;;;1.50;;
49610;SDS011;35515;48.766;9.176;2023-01-04T08:26:58;2.90;;;1.70;;
49610;SDS011;35515;48.766;9.176;2023-01-04T08:29:25;2.60;;;1.60;;
49610;SDS011;35515;48.766;9.176;2023-01-04T08:31:51;4.63;;;1.60;;
49610;SDS011;35515;48.766;9.176;2023-01-04T08:34:18;3.00;;;1.58;;
49610;SDS011;35515;48.766;9.176;2023-01-04T08:36:45;2.20;;;1.70;;
49610;SDS011;35515;48.766;9.176;2023-01-04T08:39:14;2.10;;;1.50;;
49610;SDS011;35515;48.766;9.176;2023-01-04T08:41:41;2.65;;;1.40;;
49610;SDS011;35515;48.766;9.176;2023-01-04T08:44:18;1.98;;;1.25;;
49610;SDS011;35515;48.766;9.176;2023-01-04T08:46:45;2.40;;;1.58;;
49610;SDS011;35515;48.766;9.176;2023-01-04T08:49:12;1.90;;;1.48;;
49610;SDS011;35515;48.766;9.176;2023-01-04T08:51:38;2.25;;;1.60;;
49610;SDS011;35515;48.766;9.176;2023-01-04T08:54:05;2.10;;;1.40;;
49610;SDS011;35515;48.766;9.176;2023-01-04T08:56:32;3.15;;;1.52;;
49610;SDS011;35515;48.766;9.176;2023-01-04T08:59:00;2.70;;;1.55;;
49610;SDS011;35515;48.766;9.176;2023-01-04T09:01:27;2.17;;;1.40;;
49610;SDS011;35515;48.766;9.176;2023-01-04T09:03:54;1.95;;;1.50;;
49610;SDS011;35515;48.766;9.176;2023-01-04T09:06:21;2.28;;;1.67;;
49610;SDS011;35515;48.766;9.176;2023-01-04T09:08:48;2.15;;;1.42;;
49610;SDS011;35515;48.766;9.176;2023-01-04T09:11:16;4.38;;;1.65;;
49610;SDS011;35515;48.766;9.176;2023-01-04T09:13:44;3.88;;;1.67;;
49610;SDS011;35515;48.766;9.176;2023-01-04T09:16:12;8.77;;;2.00;;
49610;SDS011;35515;48.766;9.176;2023-01-04T09:18:40;2.53;;;1.35;;
49610;SDS011;35515;48.766;9.176;2023-01-04T09:21:08;3.15;;;1.58;;
49610;SDS011;35515;48.766;9.176;2023-01-04T09:23:37;2.95;;;1.67;;
49610;SDS011;35515;48.766;9.176;2023-01-04T09:26:05;2.78;;;1.75;;
49610;SDS011;35515;48.766;9.176;2023-01-04T09:28:32;3.72;;;1.70;;
49610;SDS011;35515;48.766;9.176;2023-01-04T09:31:03;3.80;;;1.85;;
49610;SDS011;35515;48.766;9.176;2023-01-04T09:35:59;2.10;;;1.35;;
49610;SDS011;35515;48.766;9.176;2023-01-04T09:38:26;1.92;;;1.50;;
49610;SDS011;35515;48.766;9.176;2023-01-04T09:40:53;2.05;;;1.15;;
49610;SDS011;35515;48.766;9.176;2023-01-04T09:43:27;1.95;;;1.45;;
49610;SDS011;35515;48.766;9.176;2023-01-04T09:46:03;2.85;;;1.60;;
49610;SDS011;35515;48.766;9.176;2023-01-04T09:48:36;1.67;;;1.40;;
49610;SDS011;35515;48.766;9.176;2023-01-04T09:51:11;3.83;;;1.50;;
49610;SDS011;35515;48.766;9.176;2023-01-04T09:53:45;3.10;;;1.30;;
49610;SDS011;35515;48.766;9.176;2023-01-04T09:56:17;4.22;;;1.42;;
49610;SDS011;35515;48.766;9.176;2023-01-04T09:58:48;2.35;;;1.38;;
49610;SDS011;35515;48.766;9.176;2023-01-04T10:01:17;3.30;;;1.95;;
49610;SDS011;35515;48.766;9.176;2023-01-04T10:03:51;2.83;;;1.63;;
49610;SDS011;35515;48.766;9.176;2023-01-04T10:06:23;3.20;;;2.15;;
49610;SDS011;35515;48.766;9.176;2023-01-04T10:08:50;2.15;;;1.52;;
49610;SDS011;35515;48.766;9.176;2023-01-04T10:11:32;2.30;;;1.20;;
49610;SDS011;35515;48.766;9.176;2023-01-04T10:14:11;2.63;;;1.50;;
49610;SDS011;35515;48.766;9.176;2023-01-04T10:16:51;3.35;;;1.30;;
49610;SDS011;35515;48.766;9.176;2023-01-04T10:19:35;1.48;;;1.10;;
49610;SDS011;35515;48.766;9.176;2023-01-04T10:22:10;2.80;;;1.40;;
49610;SDS011;35515;48.766;9.176;2023-01-04T10:24:47;2.40;;;1.40;;
49610;SDS011;35515;48.766;9.176;2023-01-04T10:27:23;3.05;;;1.25;;
49610;SDS011;35515;48.766;9.176;2023-01-04T10:29:59;1.85;;;1.10;;
49610;SDS011;35515;48.766;9.176;2023-01-04T10:32:40;2.88;;;1.40;;
49610;SDS011;35515;48.766;9.176;2023-01-04T10:35:15;2.30;;;1.30;;
49610;SDS011;35515;48.766;9.176;2023-01-04T10:37:44;2.83;;;1.33;;
49610;SDS011;35515;48.766;9.176;2023-01-04T10:40:14;2.13;;;1.30;;
49610;SDS011;35515;48.766;9.176;2023-01-04T10:42:43;3.20;;;1.13;;
49610;SDS011;35515;48.766;9.176;2023-01-04T10:45:18;1.88;;;1.20;;
49610;SDS011;35515;48.766;9.176;2023-01-04T10:47:51;2.28;;;1.20;;
49610;SDS011;35515;48.766;9.176;2023-01-04T10:50:25;2.05;;;1.75;;
49610;SDS011;35515;48.766;9.176;2023-01-04T10:52:57;2.05;;;1.30;;
49610;SDS011;35515;48.766;9.176;2023-01-04T10:55:28;3.55;;;1.88;;
49610;SDS011;35515;48.766;9.176;2023-01-04T10:58:02;2.30;;;1.42;;
49610;SDS011;35515;48.766;9.176;2023-01-04T11:00:33;5.55;;;1.45;;
49610;SDS011;35515;48.766;9.176;2023-01-04T11:03:05;1.85;;;1.40;;
49610;SDS011;35515;48.766;9.176;2023-01-04T11:05:40;2.47;;;1.50;;
49610;SDS011;35515;48.766;9.176;2023-01-04T11:08:13;2.53;;;1.35;;
49610;SDS011;35515;48.766;9.176;2023-01-04T11:10:45;2.97;;;1.77;;
49610;SDS011;35515;48.766;9.176;2023-01-04T11:13:17;5.13;;;2.15;;
49610;SDS011;35515;48.766;9.176;2023-01-04T11:15:43;4.45;;;2.30;;
49610;SDS011;35515;48.766;9.176;2023-01-04T11:18:11;2.78;;;2.00;;
49610;SDS011;35515;48.766;9.176;2023-01-04T11:20:41;3.30;;;1.50;;
49610;SDS011;35515;48.766;9.176;2023-01-04T11:23:08;3.15;;;1.40;;
49610;SDS011;35515;48.766;9.176;2023-01-04T11:25:40;3.15;;;1.35;;
49610;SDS011;35515;48.766;9.176;2023-01-04T11:28:14;2.00;;;1.30;;
49610;SDS011;35515;48.766;9.176;2023-01-04T11:30:49;2.38;;;1.50;;
49610;SDS011;35515;48.766;9.176;2023-01-04T11:33:21;2.05;;;1.40;;
49610;SDS011;35515;48.766;9.176;2023-01-04T11:35:51;3.05;;;1.63;;
49610;SDS011;35515;48.766;9.176;2023-01-04T11:38:20;4.25;;;1.50;;
49610;SDS011;35515;48.766;9.176;2023-01-04T11:40:55;2.40;;;1.25;;
49610;SDS011;35515;48.766;9.176;2023-01-04T11:43:23;2.35;;;1.38;;
49610;SDS011;35515;48.766;9.176;2023-01-04T11:45:52;3.03;;;2.00;;
49610;SDS011;35515;48.766;9.176;2023-01-04T11:48:29;5.43;;;2.08;;
49610;SDS011;35515;48.766;9.176;2023-01-04T11:50:59;3.60;;;1.55;;
49610;SDS011;35515;48.766;9.176;2023-01-04T11:53:27;2.97;;;1.52;;
49610;SDS011;35515;48.766;9.176;2023-01-04T11:56:12;3.10;;;1.73;;
49610;SDS011;35515;48.766;9.176;2023-01-04T11:58:45;4.60;;;1.80;;
49610;SDS011;35515;48.766;9.176;2023-01-04T12:01:28;2.13;;;1.30;;
49610;SDS011;35515;48.766;9.176;2023-01-04T12:03:55;3.42;;;1.75;;
49610;SDS011;35515;48.766;9.176;2023-01-04T12:06:28;2.35;;;1.50;;
49610;SDS011;35515;48.766;9.176;2023-01-04T12:09:00;2.17;;;1.30;;
49610;SDS011;35515;48.766;9.176;2023-01-04T12:11:27;5.53;;;1.70;;
49610;SDS011;35515;48.766;9.176;2023-01-04T12:13:56;2.03;;;1.38;;
49610;SDS011;35515;48.766;9.176;2023-01-04T12:16:27;2.85;;;1.63;;
49610;SDS011;35515;48.766;9.176;2023-01-04T12:19:07;2.45;;;1.50;;
49610;SDS011;35515;48.766;9.176;2023-01-04T12:21:38;2.40;;;1.47;;
49610;SDS011;35515;48.766;9.176;2023-01-04T12:24:07;2.57;;;1.40;;
49610;SDS011;35515;48.766;9.176;2023-01-04T12:26:39;1.77;;;1.25;;
49610;SDS011;35515;48.766;9.176;2023-01-04T12:35:06;3.00;;;1.50;;
49610;SDS011;35515;48.766;9.176;2023-01-04T12:38:09;2.17;;;1.30;;
49610;SDS011;35515;48.766;9.176;2023-01-04T12:40:51;2.53;;;1.30;;
49610;SDS011;35515;48.766;9.176;2023-01-04T12:43:22;3.17;;;1.20;;
49610;SDS011;35515;48.766;9.176;2023-01-04T12:46:31;2.35;;;1.20;;
49610;SDS011;35515;48.766;9.176;2023-01-04T12:58:39;2.03;;;1.20;;
49610;SDS011;35515;48.766;9.176;2023-01-04T13:01:08;4.97;;;1.23;;
49610;SDS011;35515;48.766;9.176;2023-01-04T13:03:48;2.60;;;1.10;;
49610;SDS011;35515;48.766;9.176;2023-01-04T13:06:20;1.73;;;1.20;;
49610;SDS011;35515;48.766;9.176;2023-01-04T13:08:49;3.25;;;1.30;;
49610;SDS011;35515;48.766;9.176;2023-01-04T13:11:23;1.63;;;1.17;;
49610;SDS011;35515;48.766;9.176;2023-01-04T13:14:15;3.67;;;1.30;;
49610;SDS011;35515;48.766;9.176;2023-01-04T13:16:55;1.48;;;1.00;;
49610;SDS011;35515;48.766;9.176;2023-01-04T13:19:42;1.20;;;1.10;;
49610;SDS011;35515;48.766;9.176;2023-01-04T13:22:10;1.77;;;1.33;;
49610;SDS011;35515;48.766;9.176;2023-01-04T13:24:43;1.60;;;1.10;;
49610;SDS011;35515;48.766;9.176;2023-01-04T13:27:13;1.05;;;0.85;;
49610;SDS011;35515;48.766;9.176;2023-01-04T13:29:43;2.67;;;0.95;;
49610;SDS011;35515;48.766;9.176;2023-01-04T13:32:10;2.58;;;1.10;;
49610;SDS011;35515;48.766;9.176;2023-01-04T13:34:39;2.25;;;1.05;;
49610;SDS011;35515;48.766;9.176;2023-01-04T13:37:14;2.65;;;1.20;;
49610;SDS011;35515;48.766;9.176;2023-01-04T13:39:46;2.83;;;1.20;;
49610;SDS011;35515;48.766;9.176;2023-01-04T13:42:15;2.75;;;1.17;;
49610;SDS011;35515;48.766;9.176;2023-01-04T13:47:54;1.67;;;0.90;;
49610;SDS011;35515;48.766;9.176;2023-01-04T13:50:26;1.65;;;1.17;;
49610;SDS011;35515;48.766;9.176;2023-01-04T13:52:57;3.47;;;1.00;;
49610;SDS011;35515;48.766;9.176;2023-01-04T13:55:25;4.10;;;1.98;;
49610;SDS011;35515;48.766;9.176;2023-01-04T13:57:53;1.42;;;0.98;;
49610;SDS011;35515;48.766;9.176;2023-01-04T14:00:22;1.88;;;1.20;;
49610;SDS011;35515;48.766;9.176;2023-01-04T14:03:04;1.80;;;1.10;;
49610;SDS011;35515;48.766;9.176;2023-01-04T14:05:43;1.55;;;0.93;;
49610;SDS011;35515;48.766;9.176;2023-01-04T14:08:13;1.23;;;0.90;;
49610;SDS011;35515;48.766;9.176;2023-01-04T14:10:45;1.20;;;0.70;;
49610;SDS011;35515;48.766;9.176;2023-01-04T14:13:13;1.10;;;0.90;;
49610;SDS011;35515;48.766;9.176;2023-01-04T14:15:42;1.17;;;0.98;;
49610;SDS011;35515;48.766;9.176;2023-01-04T14:18:22;1.33;;;0.85;;
49610;SDS011;35515;48.766;9.176;2023-01-04T14:20:50;1.77;;;0.88;;
49610;SDS011;35515;48.766;9.176;2023-01-04T14:23:24;3.65;;;1.05;;
49610;SDS011;35515;48.766;9.176;2023-01-04T14:25:52;2.40;;;0.80;;
49610;SDS011;35515;48.766;9.176;2023-01-04T14:28:25;1.25;;;0.90;;
49610;SDS011;35515;48.766;9.176;2023-01-04T14:30:55;1.40;;;1.00;;
49610;SDS011;35515;48.766;9.176;2023-01-04T14:33:44;0.98;;;0.70;;
49610;SDS011;35515;48.766;9.176;2023-01-04T14:36:13;1.17;;;0.98;;
49610;SDS011;35515;48.766;9.176;2023-01-04T14:38:46;2.03;;;1.10;;
49610;SDS011;35515;48.766;9.176;2023-01-04T14:41:21;1.55;;;0.90;;
49610;SDS011;35515;48.766;9.176;2023-01-04T14:43:50;1.35;;;0.90;;
49610;SDS011;35515;48.766;9.176;2023-01-04T14:46:19;1.58;;;1.10;;
49610;SDS011;35515;48.766;9.176;2023-01-04T14:48:46;2.60;;;1.10;;
49610;SDS011;35515;48.766;9.176;2023-01-04T14:51:13;2.25;;;1.10;;
49610;SDS011;35515;48.766;9.176;2023-01-04T14:53:42;2.83;;;0.80;;
49610;SDS011;35515;48.766;9.176;2023-01-04T14:56:10;2.42;;;1.00;;
49610;SDS011;35515;48.766;9.176;2023-01-04T14:58:37;1.95;;;1.10;;
49610;SDS011;35515;48.766;9.176;2023-01-04T15:01:04;1.42;;;1.00;;
49610;SDS011;35515;48.766;9.176;2023-01-04T15:03:32;1.38;;;1.00;;
49610;SDS011;35515;48.766;9.176;2023-01-04T15:05:58;1.13;;;0.90;;
49610;SDS011;35515;48.766;9.176;2023-01-04T15:08:25;4.78;;;1.20;;
49610;SDS011;35515;48.766;9.176;2023-01-04T15:10:51;1.50;;;0.90;;
49610;SDS011;35515;48.766;9.176;2023-01-04T15:13:18;1.75;;;1.00;;
49610;SDS011;35515;48.766;9.176;2023-01-04T15:15:44;1.30;;;1.20;;
49610;SDS011;35515;48.766;9.176;2023-01-04T15:18:11;1.10;;;0.90;;
49610;SDS011;35515;48.766;9.176;2023-01-04T15:20:39;2.00;;;0.93;;
49610;SDS011;35515;48.766;9.176;2023-01-04T15:23:06;4.07;;;1.50;;
49610;SDS011;35515;48.766;9.176;2023-01-04T15:25:33;2.63;;;1.08;;
49610;SDS011;35515;48.766;9.176;2023-01-04T15:27:59;1.83;;;0.90;;
49610;SDS011;35515;48.766;9.176;2023-01-04T15:30:26;1.95;;;1.20;;
49610;SDS011;35515;48.766;9.176;2023-01-04T15:32:52;1.67;;;0.90;;
49610;SDS011;35515;48.766;9.176;2023-01-04T15:35:19;2.25;;;1.10;;
49610;SDS011;35515;48.766;9.176;2023-01-04T15:37:47;1.95;;;0.95;;
49610;SDS011;35515;48.766;9.176;2023-01-04T15:40:14;0.90;;;0.80;;